createdAt,value
2019-04-19T00:00:28.915Z,0
2019-04-19T00:02:12.560Z,0
2019-04-19T00:03:45.279Z,0
2019-04-19T00:05:13.647Z,0
2019-04-19T00:06:46.646Z,0
2019-04-19T00:09:30.644Z,0
2019-04-19T00:11:41.817Z,0
2019-04-19T00:13:13.438Z,0
2019-04-19T00:14:25.850Z,0
2019-04-19T00:15:39.300Z,0
2019-04-19T00:16:53.041Z,0
2019-04-19T00:18:24.505Z,0
2019-04-19T00:21:37.738Z,0
2019-04-19T00:23:45.619Z,0
2019-04-19T00:25:00.644Z,0
2019-04-19T00:26:12.633Z,0
2019-04-19T00:27:41.308Z,0
2019-04-19T00:29:39.282Z,0
2019-04-19T00:32:11.526Z,0
2019-04-19T00:33:58.859Z,0
2019-04-19T00:35:11.676Z,0
2019-04-19T00:36:27.540Z,0
2019-04-19T00:37:38.952Z,0
2019-04-19T00:40:26.202Z,0
2019-04-19T00:43:30.108Z,0
2019-04-19T00:46:28.997Z,0
2019-04-19T00:49:10.036Z,0
2019-04-19T00:51:36.314Z,0
2019-04-19T00:54:04.779Z,0
2019-04-19T00:56:13.226Z,0
2019-04-19T00:58:11.973Z,0
2019-04-19T00:59:47.112Z,0
2019-04-19T01:01:30.613Z,0
2019-04-19T01:03:04.197Z,0
2019-04-19T01:04:36.688Z,0
2019-04-19T01:06:23.470Z,0
2019-04-19T01:07:49.611Z,0
2019-04-19T01:10:14.599Z,0
2019-04-19T01:12:52.337Z,0
2019-04-19T01:15:18.594Z,0
2019-04-19T01:17:53.799Z,0
2019-04-19T01:19:28.066Z,0
2019-04-19T01:20:39.745Z,0
2019-04-19T01:21:49.803Z,0
2019-04-19T01:23:24.718Z,0
2019-04-19T01:24:54.792Z,0
2019-04-19T01:26:21.473Z,0
2019-04-19T01:27:44.666Z,0
2019-04-19T01:29:21.690Z,0
2019-04-19T01:30:52.279Z,0
2019-04-19T01:32:24.712Z,0
2019-04-19T01:33:52.662Z,0
2019-04-19T01:35:26.091Z,0
2019-04-19T01:36:55.219Z,0
2019-04-19T01:38:19.422Z,0
2019-04-19T01:41:07.539Z,0
2019-04-19T01:43:55.886Z,0
2019-04-19T01:46:48.338Z,0
2019-04-19T01:49:23.076Z,0
2019-04-19T01:52:40.579Z,0
2019-04-19T01:55:18.526Z,0
2019-04-19T01:56:32.951Z,0
2019-04-19T01:57:45.048Z,0
2019-04-19T01:59:10.276Z,0
2019-04-19T02:00:55.367Z,0
2019-04-19T02:02:29.744Z,0
2019-04-19T02:03:59.133Z,0
2019-04-19T02:05:27.582Z,0
2019-04-19T02:06:54.732Z,0
2019-04-19T02:08:20.985Z,0
2019-04-19T02:10:48.093Z,0
2019-04-19T02:13:08.517Z,0
2019-04-19T02:15:09.530Z,0
2019-04-19T02:16:36.622Z,0
2019-04-19T02:17:59.267Z,0
2019-04-19T02:19:36.933Z,0
2019-04-19T02:21:00.534Z,0
2019-04-19T02:22:41.356Z,0
2019-04-19T02:24:10.540Z,0
2019-04-19T02:25:37.224Z,0
2019-04-19T02:27:16.503Z,0
2019-04-19T02:28:47.367Z,0
2019-04-19T02:31:10.269Z,0
2019-04-19T02:34:54.096Z,0
2019-04-19T02:39:04.920Z,0
2019-04-19T02:51:51.937Z,0
2019-04-19T02:55:52.508Z,0
2019-04-19T03:00:29.728Z,0
2019-04-19T03:07:01.000Z,0
2019-04-19T03:08:16.422Z,0
2019-04-19T03:09:43.980Z,0
2019-04-19T03:12:16.429Z,0
2019-04-19T03:15:05.206Z,0
2019-04-19T03:18:19.097Z,0
2019-04-19T03:20:57.183Z,0
2019-04-19T03:23:42.068Z,0
2019-04-19T03:26:30.423Z,0
2019-04-19T03:28:49.935Z,0
2019-04-19T03:32:34.597Z,0
2019-04-19T03:36:11.478Z,0
2019-04-19T03:39:11.426Z,0
2019-04-19T03:42:44.336Z,0
2019-04-19T03:45:49.853Z,0
2019-04-19T03:49:06.020Z,0
2019-04-19T03:52:48.286Z,0
2019-04-19T03:55:46.477Z,5
2019-04-19T03:58:12.224Z,5
2019-04-19T03:59:26.967Z,5
2019-04-19T04:00:39.064Z,5
2019-04-19T04:02:07.701Z,10
2019-04-19T04:03:50.985Z,10
2019-04-19T04:05:22.710Z,10
2019-04-19T04:06:50.416Z,15
2019-04-19T04:08:27.958Z,15
2019-04-19T04:10:04.868Z,15
2019-04-19T04:11:34.586Z,20
2019-04-19T04:13:56.269Z,20
2019-04-19T04:16:23.850Z,25
2019-04-19T04:17:37.756Z,25
2019-04-19T04:18:49.474Z,30
2019-04-19T04:20:00.779Z,30
2019-04-19T04:21:16.154Z,30
2019-04-19T04:22:49.743Z,35
2019-04-19T04:24:58.120Z,35
2019-04-19T04:27:05.696Z,40
2019-04-19T04:29:25.105Z,45
2019-04-19T04:31:43.204Z,50
2019-04-19T04:34:07.717Z,50
2019-04-19T04:37:06.042Z,55
2019-04-19T04:38:51.612Z,60
2019-04-19T04:40:04.678Z,60
2019-04-19T04:41:35.962Z,65
2019-04-19T04:44:07.768Z,65
2019-04-19T04:47:39.205Z,70
2019-04-19T04:51:04.272Z,75
2019-04-19T04:52:51.336Z,80
2019-04-19T04:54:04.146Z,80
2019-04-19T04:55:15.935Z,80
2019-04-19T04:56:58.811Z,85
2019-04-19T04:58:42.641Z,85
2019-04-19T05:00:09.959Z,90
2019-04-19T05:02:23.020Z,90
2019-04-19T05:05:01.574Z,95
2019-04-19T05:07:56.615Z,95
2019-04-19T05:11:02.126Z,100
2019-04-19T05:14:27.298Z,105
2019-04-19T05:18:17.113Z,110
2019-04-19T05:21:12.168Z,110
2019-04-19T05:24:08.648Z,115
2019-04-19T05:27:45.370Z,115
2019-04-19T05:29:53.224Z,120
2019-04-19T05:31:46.593Z,120
2019-04-19T05:34:19.915Z,125
2019-04-19T05:37:17.172Z,125
2019-04-19T05:40:35.044Z,130
2019-04-19T05:43:47.210Z,130
2019-04-19T05:47:23.255Z,135
2019-04-19T05:49:59.575Z,135
2019-04-19T05:53:07.381Z,140
2019-04-19T05:54:27.980Z,140
2019-04-19T05:55:38.861Z,140
2019-04-19T05:57:56.434Z,140
2019-04-19T06:00:20.330Z,145
2019-04-19T06:02:52.156Z,145
2019-04-19T06:06:25.779Z,150
2019-04-19T06:08:34.134Z,150
2019-04-19T06:09:46.114Z,150
2019-04-19T06:11:15.195Z,150
2019-04-19T06:12:49.467Z,155
2019-04-19T06:16:15.303Z,155
2019-04-19T06:18:54.763Z,155
2019-04-19T06:22:00.483Z,160
2019-04-19T06:25:05.907Z,160
2019-04-19T06:32:20.565Z,165
2019-04-19T06:35:19.714Z,165
2019-04-19T06:36:37.764Z,170
2019-04-19T06:37:52.285Z,170
2019-04-19T06:39:03.507Z,175
2019-04-19T06:40:48.918Z,175
2019-04-19T06:42:41.028Z,175
2019-04-19T06:45:26.566Z,180
2019-04-19T06:47:43.211Z,190
2019-04-19T06:49:28.166Z,195
2019-04-19T06:51:14.328Z,195
2019-04-19T06:52:44.768Z,200
2019-04-19T06:54:24.651Z,200
2019-04-19T06:56:17.608Z,215
2019-04-19T06:58:20.763Z,240
2019-04-19T07:00:59.997Z,270
2019-04-19T07:02:16.392Z,260
2019-04-19T07:03:30.185Z,240
2019-04-19T07:05:36.874Z,215
2019-04-19T07:09:26.315Z,200
2019-04-19T07:12:51.072Z,200
2019-04-19T07:14:36.828Z,200
2019-04-19T07:17:47.049Z,200
2019-04-19T07:20:42.163Z,205
2019-04-19T07:23:28.028Z,205
2019-04-19T07:26:57.514Z,205
2019-04-19T07:28:41.849Z,205
2019-04-19T07:30:06.924Z,205
2019-04-19T07:31:27.970Z,205
2019-04-19T07:33:16.961Z,205
2019-04-19T07:36:22.081Z,205
2019-04-19T07:39:33.509Z,205
2019-04-19T07:43:00.110Z,210
2019-04-19T07:45:05.663Z,210
2019-04-19T07:47:39.980Z,210
2019-04-19T07:48:55.857Z,210
2019-04-19T07:50:55.487Z,210
2019-04-19T07:54:34.022Z,215
2019-04-19T07:59:17.794Z,220
2019-04-19T08:04:08.499Z,220
2019-04-19T08:14:33.935Z,225
2019-04-19T08:27:41.134Z,235
2019-04-19T08:29:57.736Z,240
2019-04-19T08:31:23.436Z,240
2019-04-19T08:32:34.582Z,245
2019-04-19T08:33:49.791Z,245
2019-04-19T08:35:22.098Z,250
2019-04-19T08:37:16.053Z,255
2019-04-19T08:39:16.608Z,260
2019-04-19T08:42:24.268Z,295
2019-04-19T08:44:59.548Z,330
2019-04-19T08:46:15.550Z,335
2019-04-19T08:48:15.295Z,335
2019-04-19T08:49:51.885Z,335
2019-04-19T08:51:09.975Z,335
2019-04-19T08:52:42.060Z,340
2019-04-19T08:55:54.085Z,350
2019-04-19T08:57:37.691Z,345
2019-04-19T09:03:51.006Z,340
2019-04-19T09:07:53.391Z,350
2019-04-19T09:11:24.425Z,350
2019-04-19T09:14:51.760Z,360
2019-04-19T09:18:50.213Z,370
2019-04-19T09:21:48.347Z,375
2019-04-19T09:24:09.809Z,390
2019-04-19T09:26:44.434Z,385
2019-04-19T09:30:11.160Z,400
2019-04-19T09:32:26.667Z,405
2019-04-19T09:34:03.663Z,410
2019-04-19T09:35:30.831Z,440
2019-04-19T09:38:00.936Z,700
2019-04-19T09:40:27.293Z,705
2019-04-19T09:42:34.255Z,675
2019-04-19T09:44:43.436Z,590
2019-04-19T09:45:57.493Z,550
2019-04-19T09:47:14.379Z,530
2019-04-19T09:50:00.114Z,545
2019-04-19T09:53:25.705Z,555
2019-04-19T09:56:35.677Z,610
2019-04-19T09:59:17.078Z,720
2019-04-19T10:00:40.954Z,700
2019-04-19T10:02:20.749Z,710
2019-04-19T10:04:05.849Z,760
2019-04-19T10:05:17.427Z,760
2019-04-19T10:06:29.113Z,790
2019-04-19T10:07:40.864Z,820
2019-04-19T10:08:54.308Z,820
2019-04-19T10:10:21.316Z,810
2019-04-19T10:11:33.127Z,860
2019-04-19T10:12:46.103Z,860
2019-04-19T10:13:58.436Z,870
2019-04-19T10:15:09.649Z,890
2019-04-19T10:16:22.176Z,925
2019-04-19T10:17:34.221Z,940
2019-04-19T10:19:14.675Z,935
2019-04-19T10:20:25.767Z,945
2019-04-19T10:21:49.289Z,910
2019-04-19T10:23:06.997Z,990
2019-04-19T10:24:31.271Z,1030
2019-04-19T10:26:04.528Z,1055
2019-04-19T10:27:19.490Z,1050
2019-04-19T10:28:34.950Z,1080
2019-04-19T10:29:55.768Z,1055
2019-04-19T10:31:07.127Z,1110
2019-04-19T10:32:20.258Z,1130
2019-04-19T10:34:05.871Z,1140
2019-04-19T10:35:17.869Z,1130
2019-04-19T10:36:29.034Z,1165
2019-04-19T10:37:40.232Z,1190
2019-04-19T10:38:54.636Z,1195
2019-04-19T10:40:09.862Z,1250
2019-04-19T10:41:22.128Z,1245
2019-04-19T10:42:35.465Z,1250
2019-04-19T10:44:10.303Z,1200
2019-04-19T10:45:26.326Z,1230
2019-04-19T10:46:36.631Z,1265
2019-04-19T10:47:49.436Z,1225
2019-04-19T10:49:51.505Z,1305
2019-04-19T10:51:09.405Z,1325
2019-04-19T10:52:21.573Z,1340
2019-04-19T10:53:32.736Z,1385
2019-04-19T10:54:43.629Z,1390
2019-04-19T10:55:54.621Z,1415
2019-04-19T10:57:08.099Z,1275
2019-04-19T10:58:19.754Z,1315
2019-04-19T10:59:30.184Z,1265
2019-04-19T11:00:43.059Z,1245
2019-04-19T11:01:55.560Z,1355
2019-04-19T11:03:08.867Z,1315
2019-04-19T11:04:20.662Z,1385
2019-04-19T11:05:32.507Z,1485
2019-04-19T11:06:42.552Z,1510
2019-04-19T11:07:55.738Z,1585
2019-04-19T11:09:07.016Z,1600
2019-04-19T11:10:19.738Z,1585
2019-04-19T11:11:32.368Z,1525
2019-04-19T11:12:44.718Z,1610
2019-04-19T11:13:56.104Z,1605
2019-04-19T11:15:08.885Z,1565
2019-04-19T11:16:21.377Z,1655
2019-04-19T11:17:33.570Z,1695
2019-04-19T11:18:46.181Z,1730
2019-04-19T11:20:52.720Z,1580
2019-04-19T11:22:05.413Z,1420
2019-04-19T11:23:15.941Z,1635
2019-04-19T11:24:28.360Z,1510
2019-04-19T11:25:43.231Z,1395
2019-04-19T11:26:56.991Z,1555
2019-04-19T11:28:08.909Z,1755
2019-04-19T11:29:21.794Z,1770
2019-04-19T11:30:34.946Z,1665
2019-04-19T11:31:46.308Z,1590
2019-04-19T11:32:58.899Z,1610
2019-04-19T11:34:11.013Z,1605
2019-04-19T11:35:23.117Z,1570
2019-04-19T11:36:34.057Z,1755
2019-04-19T11:37:45.060Z,1890
2019-04-19T11:38:57.088Z,1840
2019-04-19T11:40:09.322Z,1900
2019-04-19T11:41:21.277Z,1980
2019-04-19T11:42:33.386Z,1925
2019-04-19T11:43:45.453Z,1790
2019-04-19T11:44:57.382Z,1935
2019-04-19T11:46:09.666Z,2060
2019-04-19T11:47:22.977Z,1955
2019-04-19T11:48:37.641Z,1955
2019-04-19T11:49:55.291Z,2110
2019-04-19T11:51:06.102Z,2030
2019-04-19T11:52:22.366Z,1970
2019-04-19T11:53:32.642Z,2050
2019-04-19T11:54:44.330Z,1990
2019-04-19T11:55:54.207Z,1920
2019-04-19T11:57:16.637Z,2010
2019-04-19T11:58:31.533Z,1995
2019-04-19T12:00:04.042Z,2115
2019-04-19T12:01:16.574Z,2025
2019-04-19T12:02:33.681Z,2030
2019-04-19T12:03:50.010Z,2020
2019-04-19T12:05:10.943Z,2010
2019-04-19T12:06:26.460Z,2080
2019-04-19T12:07:39.149Z,2100
2019-04-19T12:08:56.718Z,1985
2019-04-19T12:10:08.536Z,2095
2019-04-19T12:11:20.433Z,2080
2019-04-19T12:12:33.246Z,2085
2019-04-19T12:13:50.003Z,2215
2019-04-19T12:15:02.108Z,2130
2019-04-19T12:16:13.370Z,2155
2019-04-19T12:17:25.404Z,2140
2019-04-19T12:18:40.008Z,2085
2019-04-19T12:20:13.048Z,2075
2019-04-19T12:21:25.080Z,2100
2019-04-19T12:22:35.769Z,2065
2019-04-19T12:23:47.133Z,2090
2019-04-19T12:25:03.633Z,2230
2019-04-19T12:26:13.920Z,2255
2019-04-19T12:27:26.115Z,2175
2019-04-19T12:28:38.001Z,2120
2019-04-19T12:30:02.159Z,2160
2019-04-19T12:31:13.475Z,2210
2019-04-19T12:32:25.399Z,2320
2019-04-19T12:33:37.832Z,2265
2019-04-19T12:34:49.075Z,2185
2019-04-19T12:36:01.581Z,2210
2019-04-19T12:37:13.206Z,2220
2019-04-19T12:38:25.997Z,2270
2019-04-19T12:39:38.907Z,2230
2019-04-19T12:40:50.514Z,2270
2019-04-19T12:42:03.948Z,2395
2019-04-19T12:43:17.401Z,2385
2019-04-19T12:44:29.395Z,2275
2019-04-19T12:45:40.550Z,2270
2019-04-19T12:46:52.845Z,2225
2019-04-19T12:48:03.086Z,2325
2019-04-19T12:49:14.749Z,2450
2019-04-19T12:50:27.344Z,2380
2019-04-19T12:51:39.738Z,2340
2019-04-19T12:52:51.812Z,2230
2019-04-19T12:54:05.783Z,2265
2019-04-19T12:55:17.941Z,2355
2019-04-19T12:56:29.772Z,2330
2019-04-19T12:57:41.791Z,2340
2019-04-19T12:58:56.306Z,2275
2019-04-19T13:00:08.068Z,2245
2019-04-19T13:01:20.246Z,2295
2019-04-19T13:02:31.989Z,2335
2019-04-19T13:03:44.708Z,2310
2019-04-19T13:04:56.431Z,2370
2019-04-19T13:06:09.611Z,2395
2019-04-19T13:07:20.516Z,2355
2019-04-19T13:08:32.727Z,2390
2019-04-19T13:09:44.739Z,2555
2019-04-19T13:10:56.936Z,2480
2019-04-19T13:12:08.579Z,2415
2019-04-19T13:13:21.662Z,2460
2019-04-19T13:14:33.361Z,2435
2019-04-19T13:15:46.109Z,2325
2019-04-19T13:17:00.362Z,2405
2019-04-19T13:18:12.175Z,2485
2019-04-19T13:19:25.533Z,2440
2019-04-19T13:20:46.383Z,2460
2019-04-19T13:21:58.839Z,2480
2019-04-19T13:23:10.844Z,2485
2019-04-19T13:24:22.452Z,2435
2019-04-19T13:25:35.274Z,2400
2019-04-19T13:26:47.620Z,2485
2019-04-19T13:28:11.232Z,2470
2019-04-19T13:29:23.207Z,2395
2019-04-19T13:31:04.232Z,2555
2019-04-19T13:32:17.590Z,2385
2019-04-19T13:33:30.083Z,2340
2019-04-19T13:34:41.777Z,2375
2019-04-19T13:35:53.422Z,2485
2019-04-19T13:37:05.535Z,2505
2019-04-19T13:38:17.588Z,2515
2019-04-19T13:39:29.903Z,2575
2019-04-19T13:40:40.801Z,2555
2019-04-19T13:41:54.994Z,2675
2019-04-19T13:43:11.409Z,2535
2019-04-19T13:44:23.173Z,2410
2019-04-19T13:45:46.501Z,2455
2019-04-19T13:46:58.561Z,2670
2019-04-19T13:48:10.479Z,2640
2019-04-19T13:49:22.384Z,2590
2019-04-19T13:50:51.925Z,2565
2019-04-19T13:52:03.229Z,2575
2019-04-19T13:53:15.383Z,2615
2019-04-19T13:54:25.333Z,2500
2019-04-19T13:55:38.717Z,2565
2019-04-19T13:56:53.590Z,2445
2019-04-19T13:58:05.197Z,2375
2019-04-19T13:59:16.561Z,2305
2019-04-19T14:00:29.287Z,2440
2019-04-19T14:01:42.743Z,2530
2019-04-19T14:02:54.192Z,2585
2019-04-19T14:04:06.102Z,2520
2019-04-19T14:05:18.065Z,2575
2019-04-19T14:06:30.927Z,2515
2019-04-19T14:07:43.515Z,2455
2019-04-19T14:08:57.424Z,2530
2019-04-19T14:10:10.035Z,2540
2019-04-19T14:11:21.997Z,2585
2019-04-19T14:12:33.862Z,2485
2019-04-19T14:13:55.844Z,2420
2019-04-19T14:15:08.696Z,2490
2019-04-19T14:16:19.491Z,2505
2019-04-19T14:17:29.873Z,2455
2019-04-19T14:18:43.007Z,2520
2019-04-19T14:19:55.009Z,2440
2019-04-19T14:21:06.381Z,2505
2019-04-19T14:22:19.162Z,2695
2019-04-19T14:23:31.258Z,2530
2019-04-19T14:24:43.084Z,2380
2019-04-19T14:25:55.062Z,2360
2019-04-19T14:27:11.705Z,2360
2019-04-19T14:28:23.557Z,2265
2019-04-19T14:29:35.428Z,2345
2019-04-19T14:30:47.743Z,2460
2019-04-19T14:31:59.387Z,2405
2019-04-19T14:33:10.838Z,2285
2019-04-19T14:34:21.984Z,2185
2019-04-19T14:35:34.833Z,2245
2019-04-19T14:36:47.086Z,2215
2019-04-19T14:37:58.775Z,2025
2019-04-19T14:39:11.229Z,2215
2019-04-19T14:40:24.008Z,2380
2019-04-19T14:41:36.324Z,2320
2019-04-19T14:42:48.848Z,2270
2019-04-19T14:44:01.531Z,2280
2019-04-19T14:45:14.128Z,2180
2019-04-19T14:46:25.338Z,2130
2019-04-19T14:47:37.272Z,2265
2019-04-19T14:48:55.920Z,2240
2019-04-19T14:50:07.472Z,2190
2019-04-19T14:51:42.773Z,2190
2019-04-19T14:52:56.208Z,2240
2019-04-19T14:54:09.205Z,2005
2019-04-19T14:55:21.160Z,1660
2019-04-19T14:56:33.935Z,2230
2019-04-19T14:57:46.172Z,2340
2019-04-19T14:58:56.219Z,2230
2019-04-19T15:00:07.488Z,2180
2019-04-19T15:01:19.597Z,2125
2019-04-19T15:02:31.255Z,2085
2019-04-19T15:03:43.066Z,2130
2019-04-19T15:04:56.110Z,2225
2019-04-19T15:06:08.278Z,2270
2019-04-19T15:07:20.643Z,2150
2019-04-19T15:08:35.895Z,2075
2019-04-19T15:09:48.527Z,2030
2019-04-19T15:11:00.327Z,1935
2019-04-19T15:12:12.936Z,2005
2019-04-19T15:13:25.706Z,1905
2019-04-19T15:14:37.034Z,1945
2019-04-19T15:15:49.847Z,1990
2019-04-19T15:17:00.497Z,1860
2019-04-19T15:18:12.882Z,1760
2019-04-19T15:19:23.779Z,1715
2019-04-19T15:20:35.792Z,2020
2019-04-19T15:21:46.370Z,2195
2019-04-19T15:22:58.469Z,2150
2019-04-19T15:24:11.049Z,2090
2019-04-19T15:25:25.498Z,2045
2019-04-19T15:26:36.929Z,1990
2019-04-19T15:27:50.717Z,1985
2019-04-19T15:29:01.238Z,1885
2019-04-19T15:30:13.197Z,1810
2019-04-19T15:31:26.279Z,1895
2019-04-19T15:32:38.733Z,1945
2019-04-19T15:33:50.934Z,1970
2019-04-19T15:35:03.746Z,1900
2019-04-19T15:36:15.973Z,1940
2019-04-19T15:37:28.016Z,1965
2019-04-19T15:38:40.190Z,1855
2019-04-19T15:39:51.918Z,1635
2019-04-19T15:41:04.282Z,1180
2019-04-19T15:42:16.517Z,1595
2019-04-19T15:43:27.845Z,1825
2019-04-19T15:44:40.469Z,1840
2019-04-19T15:45:52.825Z,2000
2019-04-19T15:47:06.912Z,1925
2019-04-19T15:48:47.429Z,1705
2019-04-19T15:50:03.997Z,1755
2019-04-19T15:51:44.449Z,1790
2019-04-19T15:52:59.824Z,1665
2019-04-19T15:54:10.561Z,1695
2019-04-19T15:55:23.912Z,1660
2019-04-19T15:56:36.107Z,1730
2019-04-19T15:57:46.653Z,1730
2019-04-19T15:58:59.214Z,1705
2019-04-19T16:00:10.117Z,1705
2019-04-19T16:01:22.192Z,1670
2019-04-19T16:02:34.297Z,1585
2019-04-19T16:03:46.388Z,1555
2019-04-19T16:04:58.122Z,1575
2019-04-19T16:06:10.189Z,1490
2019-04-19T16:07:22.220Z,1510
2019-04-19T16:08:34.786Z,1470
2019-04-19T16:09:47.652Z,1470
2019-04-19T16:10:58.437Z,1430
2019-04-19T16:12:11.433Z,1430
2019-04-19T16:13:23.626Z,1415
2019-04-19T16:14:35.629Z,1470
2019-04-19T16:15:47.820Z,1470
2019-04-19T16:17:00.874Z,1395
2019-04-19T16:18:13.733Z,1405
2019-04-19T16:19:26.092Z,1380
2019-04-19T16:20:38.915Z,1365
2019-04-19T16:22:08.822Z,1255
2019-04-19T16:23:21.040Z,1295
2019-04-19T16:24:33.393Z,1295
2019-04-19T16:25:47.406Z,1320
2019-04-19T16:27:00.425Z,1290
2019-04-19T16:28:12.176Z,1245
2019-04-19T16:29:59.835Z,1220
2019-04-19T16:31:12.460Z,1210
2019-04-19T16:32:25.148Z,1160
2019-04-19T16:33:36.460Z,1115
2019-04-19T16:34:46.997Z,1095
2019-04-19T16:35:59.204Z,1125
2019-04-19T16:37:10.901Z,1170
2019-04-19T16:38:22.331Z,1075
2019-04-19T16:39:38.132Z,1055
2019-04-19T16:40:48.760Z,1065
2019-04-19T16:41:58.599Z,1045
2019-04-19T16:43:11.172Z,1020
2019-04-19T16:44:23.464Z,985
2019-04-19T16:45:35.719Z,990
2019-04-19T16:46:47.816Z,980
2019-04-19T16:48:00.125Z,970
2019-04-19T16:49:12.464Z,945
2019-04-19T16:50:25.190Z,915
2019-04-19T16:52:02.710Z,915
2019-04-19T16:53:18.124Z,930
2019-04-19T16:54:28.390Z,905
2019-04-19T16:55:41.656Z,855
2019-04-19T16:57:07.669Z,870
2019-04-19T16:58:24.408Z,835
2019-04-19T16:59:37.756Z,770
2019-04-19T17:00:49.677Z,755
2019-04-19T17:02:00.908Z,775
2019-04-19T17:03:12.233Z,735
2019-04-19T17:04:28.312Z,715
2019-04-19T17:05:39.503Z,720
2019-04-19T17:06:51.517Z,680
2019-04-19T17:08:03.953Z,650
2019-04-19T17:09:16.981Z,620
2019-04-19T17:10:31.568Z,605
2019-04-19T17:11:44.079Z,615
2019-04-19T17:12:55.962Z,610
2019-04-19T17:14:07.599Z,555
2019-04-19T17:15:19.688Z,545
2019-04-19T17:16:34.420Z,545
2019-04-19T17:17:47.014Z,510
2019-04-19T17:18:59.516Z,490
2019-04-19T17:20:11.282Z,490
2019-04-19T17:21:22.043Z,465
2019-04-19T17:22:37.226Z,455
2019-04-19T17:23:48.838Z,420
2019-04-19T17:25:00.991Z,365
2019-04-19T17:26:13.323Z,315
2019-04-19T17:27:36.827Z,370
2019-04-19T17:28:48.876Z,360
2019-04-19T17:29:59.905Z,340
2019-04-19T17:31:11.936Z,325
2019-04-19T17:32:23.982Z,325
2019-04-19T17:33:35.878Z,310
2019-04-19T17:34:47.891Z,260
2019-04-19T17:36:00.004Z,240
2019-04-19T17:37:11.883Z,250
2019-04-19T17:38:58.016Z,220
2019-04-19T17:40:09.497Z,200
2019-04-19T17:41:21.035Z,180
2019-04-19T17:42:33.264Z,130
2019-04-19T17:43:46.102Z,90
2019-04-19T17:44:58.298Z,70
2019-04-19T17:46:10.430Z,65
2019-04-19T17:47:41.228Z,60
2019-04-19T17:48:55.167Z,60
2019-04-19T17:50:07.254Z,55
2019-04-19T17:51:19.799Z,50
2019-04-19T17:52:44.287Z,45
2019-04-19T17:54:01.129Z,45
2019-04-19T17:55:54.945Z,45
2019-04-19T17:57:07.525Z,45
2019-04-19T17:58:21.244Z,35
2019-04-19T17:59:34.032Z,35
2019-04-19T18:00:45.913Z,30
2019-04-19T18:01:56.948Z,30
2019-04-19T18:03:07.369Z,25
2019-04-19T18:04:22.367Z,25
2019-04-19T18:05:34.583Z,20
2019-04-19T18:07:02.723Z,20
2019-04-19T18:08:32.501Z,15
2019-04-19T18:10:03.673Z,15
2019-04-19T18:11:37.093Z,10
2019-04-19T18:12:49.715Z,10
2019-04-19T18:14:02.016Z,10
2019-04-19T18:15:14.211Z,10
2019-04-19T18:16:26.573Z,5
2019-04-19T18:17:39.986Z,5
2019-04-19T18:19:05.385Z,5
2019-04-19T18:20:30.758Z,5
2019-04-19T18:21:50.679Z,5
2019-04-19T18:23:55.620Z,0
2019-04-19T18:25:17.881Z,0
2019-04-19T18:26:43.239Z,0
2019-04-19T18:28:16.606Z,0
2019-04-19T18:29:38.286Z,0
2019-04-19T18:31:08.193Z,0
2019-04-19T18:32:21.058Z,0
2019-04-19T18:33:40.010Z,0
2019-04-19T18:34:54.280Z,0
2019-04-19T18:36:29.373Z,0
2019-04-19T18:37:51.656Z,0
2019-04-19T18:39:04.542Z,0
2019-04-19T18:40:17.933Z,0
2019-04-19T18:41:29.846Z,0
2019-04-19T18:43:38.325Z,0
2019-04-19T18:45:23.422Z,0
2019-04-19T18:46:38.723Z,0
2019-04-19T18:47:50.707Z,0
2019-04-19T18:49:03.433Z,0
2019-04-19T18:50:15.970Z,0
2019-04-19T18:51:52.325Z,0
2019-04-19T18:53:59.416Z,0
2019-04-19T18:55:50.529Z,0
2019-04-19T18:57:14.456Z,0
2019-04-19T18:58:44.438Z,0
2019-04-19T19:00:08.526Z,0
2019-04-19T19:01:46.360Z,0
2019-04-19T19:03:11.822Z,0
2019-04-19T19:04:37.081Z,0
2019-04-19T19:06:12.830Z,0
2019-04-19T19:07:37.141Z,0
2019-04-19T19:09:20.870Z,0
2019-04-19T19:11:03.029Z,0
2019-04-19T19:12:26.781Z,0
2019-04-19T19:13:48.857Z,0
2019-04-19T19:15:12.681Z,0
2019-04-19T19:16:43.510Z,0
2019-04-19T19:18:08.300Z,0
2019-04-19T19:19:44.139Z,0
2019-04-19T19:21:16.196Z,0
2019-04-19T19:23:42.638Z,0
2019-04-19T19:26:10.519Z,0
2019-04-19T19:27:38.412Z,0
2019-04-19T19:28:52.004Z,0
2019-04-19T19:30:02.164Z,0
2019-04-19T19:31:14.613Z,0
2019-04-19T19:32:29.990Z,0
2019-04-19T19:33:58.137Z,0
2019-04-19T19:35:31.976Z,0
2019-04-19T19:36:58.734Z,0
2019-04-19T19:38:38.510Z,0
2019-04-19T19:43:59.631Z,0
2019-04-19T19:46:57.524Z,0
2019-04-19T19:50:58.183Z,0
2019-04-19T19:54:49.529Z,0
2019-04-19T19:57:58.394Z,0
2019-04-19T20:00:14.834Z,0
2019-04-19T20:02:45.231Z,0
2019-04-19T20:04:04.968Z,0
2019-04-19T20:05:40.780Z,0
2019-04-19T20:07:25.681Z,0
2019-04-19T20:08:57.904Z,0
2019-04-19T20:10:40.193Z,0
2019-04-19T20:11:55.958Z,0
2019-04-19T20:13:32.746Z,0
2019-04-19T20:15:00.003Z,0
2019-04-19T20:16:33.641Z,0
2019-04-19T20:18:06.503Z,0
2019-04-19T20:19:28.229Z,0
2019-04-19T20:20:50.644Z,0
2019-04-19T20:22:18.929Z,0
2019-04-19T20:24:27.613Z,0
2019-04-19T20:26:35.816Z,0
2019-04-19T20:28:05.417Z,0
2019-04-19T20:29:37.522Z,0
2019-04-19T20:31:05.824Z,0
2019-04-19T20:32:30.377Z,0
2019-04-19T20:34:05.768Z,0
2019-04-19T20:35:32.455Z,0
2019-04-19T20:36:51.827Z,0
2019-04-19T20:38:24.844Z,0
2019-04-19T20:39:48.711Z,0
2019-04-19T20:41:16.399Z,0
2019-04-19T20:44:02.626Z,0
2019-04-19T20:46:01.060Z,0
2019-04-19T20:47:32.916Z,0
2019-04-19T20:48:59.430Z,0
2019-04-19T20:51:15.427Z,0
2019-04-19T20:53:35.427Z,0
2019-04-19T20:56:56.348Z,0
2019-04-19T20:59:01.409Z,0
2019-04-19T21:00:15.099Z,0
2019-04-19T21:01:28.938Z,0
2019-04-19T21:02:50.204Z,0
2019-04-19T21:04:17.656Z,0
2019-04-19T21:05:47.828Z,0
2019-04-19T21:07:18.633Z,0
2019-04-19T21:08:52.535Z,0
2019-04-19T21:10:20.748Z,0
2019-04-19T21:11:52.637Z,0
2019-04-19T21:13:25.360Z,0
2019-04-19T21:14:52.416Z,0
2019-04-19T21:16:06.572Z,0
2019-04-19T21:17:21.004Z,0
2019-04-19T21:18:39.013Z,0
2019-04-19T21:19:58.836Z,0
2019-04-19T21:21:25.125Z,0
2019-04-19T21:22:44.845Z,0
2019-04-19T21:24:16.391Z,0
2019-04-19T21:26:03.994Z,0
2019-04-19T21:27:46.922Z,0
2019-04-19T21:29:07.516Z,0
2019-04-19T21:30:23.277Z,0
2019-04-19T21:32:02.963Z,0
2019-04-19T21:33:26.644Z,0
2019-04-19T21:34:46.306Z,0
2019-04-19T21:36:18.251Z,0
2019-04-19T21:37:52.778Z,0
2019-04-19T21:39:22.699Z,0
2019-04-19T21:40:53.058Z,0
2019-04-19T21:42:18.897Z,0
2019-04-19T21:43:48.233Z,0
2019-04-19T21:45:12.167Z,0
2019-04-19T21:46:39.815Z,0
2019-04-19T21:48:05.751Z,0
2019-04-19T21:49:29.119Z,0
2019-04-19T21:50:57.651Z,0
2019-04-19T21:52:30.207Z,0
2019-04-19T21:53:56.906Z,0
2019-04-19T21:55:54.947Z,0
2019-04-19T21:57:12.310Z,0
2019-04-19T21:58:31.600Z,0
2019-04-19T21:59:50.225Z,0
2019-04-19T22:01:25.812Z,0
2019-04-19T22:02:55.825Z,0
2019-04-19T22:04:21.579Z,0
2019-04-19T22:05:43.495Z,0
2019-04-19T22:07:13.362Z,0
2019-04-19T22:08:45.727Z,0
2019-04-19T22:10:09.999Z,0
2019-04-19T22:11:22.634Z,0
2019-04-19T22:12:36.515Z,0
2019-04-19T22:13:58.693Z,0
2019-04-19T22:15:21.928Z,0
2019-04-19T22:16:51.032Z,0
2019-04-19T22:18:15.778Z,0
2019-04-19T22:19:45.595Z,0
2019-04-19T22:21:12.975Z,0
2019-04-19T22:22:41.349Z,0
2019-04-19T22:24:02.856Z,0
2019-04-19T22:26:17.679Z,0
2019-04-19T22:27:32.174Z,0
2019-04-19T22:28:44.258Z,0
2019-04-19T22:29:56.214Z,0
2019-04-19T22:31:20.684Z,0
2019-04-19T22:32:34.758Z,0
2019-04-19T22:33:48.571Z,0
2019-04-19T22:35:14.762Z,0
2019-04-19T22:36:42.574Z,0
2019-04-19T22:38:00.602Z,0
2019-04-19T22:39:19.232Z,0
2019-04-19T22:40:32.463Z,0
2019-04-19T22:41:43.722Z,0
2019-04-19T22:43:18.476Z,0
2019-04-19T22:44:30.388Z,0
2019-04-19T22:45:42.414Z,0
2019-04-19T22:47:04.329Z,0
2019-04-19T22:48:29.502Z,0
2019-04-19T22:49:51.893Z,0
2019-04-19T22:51:20.533Z,0
2019-04-19T22:52:32.479Z,0
2019-04-19T22:53:52.895Z,0
2019-04-19T22:55:24.611Z,0
2019-04-19T22:57:23.785Z,0
2019-04-19T22:58:45.202Z,0
2019-04-19T23:00:09.551Z,0
2019-04-19T23:01:33.914Z,0
2019-04-19T23:02:59.292Z,0
2019-04-19T23:04:32.952Z,0
2019-04-19T23:05:57.686Z,0
2019-04-19T23:07:20.605Z,0